sensor_id;sensor_type;location;lat;lon;timestamp;pressure;altitude;pressure_sealevel;temperature;humidity
70434;BME280;57876;47.792;12.960;2023-08-12T00:02:05;97291.34;;;18.08;64.07
70434;BME280;57876;47.792;12.960;2023-08-12T00:04:29;97280.09;;;18.10;63.91
70434;BME280;57876;47.792;12.960;2023-08-12T00:06:54;97292.19;;;18.09;63.78
70434;BME280;57876;47.792;12.960;2023-08-12T00:09:18;97281.53;;;18.07;63.93
70434;BME280;57876;47.792;12.960;2023-08-12T00:11:42;97282.03;;;18.09;63.80
70434;BME280;57876;47.792;12.960;2023-08-12T00:14:07;97276.56;;;18.09;63.92
70434;BME280;57876;47.792;12.960;2023-08-12T00:16:31;97268.34;;;18.09;63.83
70434;BME280;57876;47.792;12.960;2023-08-12T00:18:56;97271.38;;;18.08;63.98
70434;BME280;57876;47.792;12.960;2023-08-12T00:21:20;97273.03;;;18.09;63.92
70434;BME280;57876;47.792;12.960;2023-08-12T00:23:45;97265.91;;;18.08;64.00
70434;BME280;57876;47.792;12.960;2023-08-12T00:26:11;97274.63;;;18.10;63.70
70434;BME280;57876;47.792;12.960;2023-08-12T00:28:36;97265.91;;;18.08;63.78
70434;BME280;57876;47.792;12.960;2023-08-12T00:31:01;97266.72;;;18.08;63.75
70434;BME280;57876;47.792;12.960;2023-08-12T00:33:25;97266.72;;;18.08;63.82
70434;BME280;57876;47.792;12.960;2023-08-12T00:35:50;97259.63;;;18.07;64.34
70434;BME280;57876;47.792;12.960;2023-08-12T00:38:14;97263.19;;;18.08;63.90
70434;BME280;57876;47.792;12.960;2023-08-12T00:40:38;97254.16;;;18.07;63.81
70434;BME280;57876;47.792;12.960;2023-08-12T00:43:03;97256.59;;;18.09;63.89
70434;BME280;57876;47.792;12.960;2023-08-12T00:45:27;97250.63;;;18.07;63.80
70434;BME280;57876;47.792;12.960;2023-08-12T00:47:52;97239.34;;;18.08;63.89
70434;BME280;57876;47.792;12.960;2023-08-12T00:50:16;97255.75;;;18.08;63.89
70434;BME280;57876;47.792;12.960;2023-08-12T00:52:41;97238.53;;;18.08;63.66
70434;BME280;57876;47.792;12.960;2023-08-12T00:55:06;97240.97;;;18.09;63.90
70434;BME280;57876;47.792;12.960;2023-08-12T00:57:31;97247.56;;;18.08;63.66
70434;BME280;57876;47.792;12.960;2023-08-12T00:59:56;97246.75;;;18.08;63.90
70434;BME280;57876;47.792;12.960;2023-08-12T01:02:20;97243.72;;;18.09;63.84
70434;BME280;57876;47.792;12.960;2023-08-12T01:04:45;97244.81;;;18.08;63.86
70434;BME280;57876;47.792;12.960;2023-08-12T01:07:09;97244.03;;;18.08;63.76
70434;BME280;57876;47.792;12.960;2023-08-12T01:09:33;97239.34;;;18.08;63.82
70434;BME280;57876;47.792;12.960;2023-08-12T01:12:06;97241.28;;;18.08;63.94
70434;BME280;57876;47.792;12.960;2023-08-12T01:14:46;97231.13;;;18.08;63.71
70434;BME280;57876;47.792;12.960;2023-08-12T01:17:14;97234.69;;;18.09;63.73
70434;BME280;57876;47.792;12.960;2023-08-12T01:19:39;97229.22;;;18.09;63.83
70434;BME280;57876;47.792;12.960;2023-08-12T01:22:08;97224.84;;;18.08;63.92
70434;BME280;57876;47.792;12.960;2023-08-12T01:27:01;97229.53;;;18.07;63.96
70434;BME280;57876;47.792;12.960;2023-08-12T01:29:26;97219.72;;;18.06;64.12
70434;BME280;57876;47.792;12.960;2023-08-12T01:31:55;97224.84;;;18.08;64.36
70434;BME280;57876;47.792;12.960;2023-08-12T01:37:24;97215.84;;;18.07;63.69
70434;BME280;57876;47.792;12.960;2023-08-12T01:39:52;97220.19;;;18.08;63.92
70434;BME280;57876;47.792;12.960;2023-08-12T01:42:18;97222.59;;;18.10;63.88
70434;BME280;57876;47.792;12.960;2023-08-12T01:44:44;97211.97;;;18.08;63.69
70434;BME280;57876;47.792;12.960;2023-08-12T01:47:09;97221.81;;;18.09;63.77
70434;BME280;57876;47.792;12.960;2023-08-12T01:49:33;97209.22;;;18.08;63.80
70434;BME280;57876;47.792;12.960;2023-08-12T01:51:58;97211.97;;;18.08;63.55
70434;BME280;57876;47.792;12.960;2023-08-12T01:54:22;97205.69;;;18.08;63.71
70434;BME280;57876;47.792;12.960;2023-08-12T01:56:47;97203.75;;;18.08;63.76
70434;BME280;57876;47.792;12.960;2023-08-12T01:59:11;97209.22;;;18.08;63.73
70434;BME280;57876;47.792;12.960;2023-08-12T02:01:36;97206.50;;;18.08;63.75
70434;BME280;57876;47.792;12.960;2023-08-12T02:04:00;97197.47;;;18.08;63.67
70434;BME280;57876;47.792;12.960;2023-08-12T02:06:24;97202.66;;;18.09;63.71
70434;BME280;57876;47.792;12.960;2023-08-12T02:08:49;97201.84;;;18.09;63.75
70434;BME280;57876;47.792;12.960;2023-08-12T02:11:14;97209.22;;;18.08;63.65
70434;BME280;57876;47.792;12.960;2023-08-12T02:13:39;97209.22;;;18.08;63.69
70434;BME280;57876;47.792;12.960;2023-08-12T02:16:03;97201.84;;;18.09;63.71
70434;BME280;57876;47.792;12.960;2023-08-12T02:18:27;97201.03;;;18.08;63.81
70434;BME280;57876;47.792;12.960;2023-08-12T02:20:52;97200.22;;;18.08;63.57
70434;BME280;57876;47.792;12.960;2023-08-12T02:23:16;97195.53;;;18.08;63.73
70434;BME280;57876;47.792;12.960;2023-08-12T02:25:41;97192.81;;;18.08;63.74
70434;BME280;57876;47.792;12.960;2023-08-12T02:28:05;97196.38;;;18.09;63.64
70434;BME280;57876;47.792;12.960;2023-08-12T02:30:29;97201.84;;;18.09;63.78
70434;BME280;57876;47.792;12.960;2023-08-12T02:32:56;97194.75;;;18.08;63.84
70434;BME280;57876;47.792;12.960;2023-08-12T02:35:20;97196.38;;;18.09;63.60
70434;BME280;57876;47.792;12.960;2023-08-12T02:37:45;97193.63;;;18.09;63.76
70434;BME280;57876;47.792;12.960;2023-08-12T02:40:09;97193.94;;;18.07;63.57
70434;BME280;57876;47.792;12.960;2023-08-12T02:42:34;97192.34;;;18.06;63.61
70434;BME280;57876;47.792;12.960;2023-08-12T02:44:59;97188.47;;;18.07;63.67
70434;BME280;57876;47.792;12.960;2023-08-12T02:47:24;97188.47;;;18.07;63.67
70434;BME280;57876;47.792;12.960;2023-08-12T02:49:48;97195.53;;;18.08;63.68
70434;BME280;57876;47.792;12.960;2023-08-12T02:52:13;97191.22;;;18.07;63.67
70434;BME280;57876;47.792;12.960;2023-08-12T02:54:37;97184.44;;;18.04;63.78
70434;BME280;57876;47.792;12.960;2023-08-12T02:57:02;97185.25;;;18.05;63.67
70434;BME280;57876;47.792;12.960;2023-08-12T02:59:26;97194.75;;;18.08;63.71
70434;BME280;57876;47.792;12.960;2023-08-12T03:01:51;97184.94;;;18.07;63.70
70434;BME280;57876;47.792;12.960;2023-08-12T03:04:16;97189.28;;;18.08;63.69
70434;BME280;57876;47.792;12.960;2023-08-12T03:06:41;97178.66;;;18.06;63.63
70434;BME280;57876;47.792;12.960;2023-08-12T03:09:05;97182.19;;;18.07;63.73
70434;BME280;57876;47.792;12.960;2023-08-12T03:11:29;97181.84;;;18.08;63.86
70434;BME280;57876;47.792;12.960;2023-08-12T03:13:54;97172.06;;;18.07;63.79
70434;BME280;57876;47.792;12.960;2023-08-12T03:16:18;97172.06;;;18.07;63.54
70434;BME280;57876;47.792;12.960;2023-08-12T03:18:42;97176.72;;;18.07;63.31
70434;BME280;57876;47.792;12.960;2023-08-12T03:21:08;97173.66;;;18.08;63.56
70434;BME280;57876;47.792;12.960;2023-08-12T03:23:36;97170.44;;;18.06;63.58
70434;BME280;57876;47.792;12.960;2023-08-12T03:26:01;97164.97;;;18.06;63.54
70434;BME280;57876;47.792;12.960;2023-08-12T03:28:25;97172.84;;;18.08;63.77
70434;BME280;57876;47.792;12.960;2023-08-12T03:30:51;97163.84;;;18.07;63.59
70434;BME280;57876;47.792;12.960;2023-08-12T03:33:16;97172.06;;;18.07;63.69
70434;BME280;57876;47.792;12.960;2023-08-12T03:35:45;97175.94;;;18.06;63.66
70434;BME280;57876;47.792;12.960;2023-08-12T03:38:09;97170.44;;;18.06;63.61
70434;BME280;57876;47.792;12.960;2023-08-12T03:40:37;97170.44;;;18.06;63.75
70434;BME280;57876;47.792;12.960;2023-08-12T03:43:02;97172.84;;;18.08;63.52
70434;BME280;57876;47.792;12.960;2023-08-12T03:45:26;97180.25;;;18.07;63.76
70434;BME280;57876;47.792;12.960;2023-08-12T03:47:51;97172.84;;;18.08;63.54
70434;BME280;57876;47.792;12.960;2023-08-12T03:50:15;97171.25;;;18.07;63.69
70434;BME280;57876;47.792;12.960;2023-08-12T03:52:40;97162.25;;;18.06;63.53
70434;BME280;57876;47.792;12.960;2023-08-12T03:55:05;97186.03;;;18.05;63.57
70434;BME280;57876;47.792;12.960;2023-08-12T03:57:29;97175.94;;;18.06;63.54
70434;BME280;57876;47.792;12.960;2023-08-12T03:59:55;97166.56;;;18.07;63.64
70434;BME280;57876;47.792;12.960;2023-08-12T04:02:20;97175.94;;;18.06;63.57
70434;BME280;57876;47.792;12.960;2023-08-12T04:04:44;97160.31;;;18.07;63.56
70434;BME280;57876;47.792;12.960;2023-08-12T04:07:08;97158.38;;;18.07;63.52
70434;BME280;57876;47.792;12.960;2023-08-12T04:09:33;97148.56;;;18.06;63.34
70434;BME280;57876;47.792;12.960;2023-08-12T04:11:57;97160.31;;;18.07;63.58
70434;BME280;57876;47.792;12.960;2023-08-12T04:14:21;97150.47;;;18.05;63.74
70434;BME280;57876;47.792;12.960;2023-08-12T04:16:46;97152.09;;;18.07;63.70
70434;BME280;57876;47.792;12.960;2023-08-12T04:19:10;97151.28;;;18.06;63.50
70434;BME280;57876;47.792;12.960;2023-08-12T04:21:34;97159.50;;;18.06;63.59
70434;BME280;57876;47.792;12.960;2023-08-12T04:23:59;97146.94;;;18.05;63.83
70434;BME280;57876;47.792;12.960;2023-08-12T04:26:23;97155.94;;;18.05;63.54
70434;BME280;57876;47.792;12.960;2023-08-12T04:28:47;97148.56;;;18.06;63.70
70434;BME280;57876;47.792;12.960;2023-08-12T04:31:12;97151.28;;;18.06;63.57
70434;BME280;57876;47.792;12.960;2023-08-12T04:33:36;97150.16;;;18.07;63.66
70434;BME280;57876;47.792;12.960;2023-08-12T04:36:01;97149.66;;;18.05;63.69
70434;BME280;57876;47.792;12.960;2023-08-12T04:38:25;97152.88;;;18.07;63.74
70434;BME280;57876;47.792;12.960;2023-08-12T04:40:50;97148.22;;;18.08;63.43
70434;BME280;57876;47.792;12.960;2023-08-12T04:43:14;97147.41;;;18.07;63.63
70434;BME280;57876;47.792;12.960;2023-08-12T04:45:38;97142.25;;;18.05;63.70
70434;BME280;57876;47.792;12.960;2023-08-12T04:48:03;97145.81;;;18.06;63.59
70434;BME280;57876;47.792;12.960;2023-08-12T04:50:31;97147.72;;;18.05;63.63
70434;BME280;57876;47.792;12.960;2023-08-12T04:52:56;97146.94;;;18.05;63.44
70434;BME280;57876;47.792;12.960;2023-08-12T04:55:20;97145.34;;;18.04;63.64
70434;BME280;57876;47.792;12.960;2023-08-12T04:57:44;97144.69;;;18.07;63.61
70434;BME280;57876;47.792;12.960;2023-08-12T05:00:09;97132.13;;;18.06;63.59
70434;BME280;57876;47.792;12.960;2023-08-12T05:02:34;97134.88;;;18.06;63.59
70434;BME280;57876;47.792;12.960;2023-08-12T05:04:58;97132.13;;;18.06;63.65
70434;BME280;57876;47.792;12.960;2023-08-12T05:07:23;97139.22;;;18.07;63.52
70434;BME280;57876;47.792;12.960;2023-08-12T05:09:47;97138.41;;;18.07;63.70
70434;BME280;57876;47.792;12.960;2023-08-12T05:12:12;97139.22;;;18.07;63.63
70434;BME280;57876;47.792;12.960;2023-08-12T05:14:37;97134.03;;;18.05;63.42
70434;BME280;57876;47.792;12.960;2023-08-12T05:17:01;97141.94;;;18.07;63.60
70434;BME280;57876;47.792;12.960;2023-08-12T05:19:26;97132.94;;;18.07;63.56
70434;BME280;57876;47.792;12.960;2023-08-12T05:21:50;97132.13;;;18.06;63.53
70434;BME280;57876;47.792;12.960;2023-08-12T05:24:15;97126.66;;;18.06;63.57
70434;BME280;57876;47.792;12.960;2023-08-12T05:26:39;97128.56;;;18.05;63.63
70434;BME280;57876;47.792;12.960;2023-08-12T05:29:03;97130.19;;;18.07;63.61
70434;BME280;57876;47.792;12.960;2023-08-12T05:31:29;97133.72;;;18.07;63.58
70434;BME280;57876;47.792;12.960;2023-08-12T05:33:53;97128.25;;;18.07;63.63
70434;BME280;57876;47.792;12.960;2023-08-12T05:36:17;97131.00;;;18.07;63.64
70434;BME280;57876;47.792;12.960;2023-08-12T05:38:42;97129.06;;;18.08;63.54
70434;BME280;57876;47.792;12.960;2023-08-12T05:41:06;97128.91;;;18.04;64.00
70434;BME280;57876;47.792;12.960;2023-08-12T05:43:31;97135.31;;;18.08;63.69
70434;BME280;57876;47.792;12.960;2023-08-12T05:45:55;97132.13;;;18.06;63.44
70434;BME280;57876;47.792;12.960;2023-08-12T05:48:20;97138.06;;;18.08;63.86
70434;BME280;57876;47.792;12.960;2023-08-12T05:50:44;97138.06;;;18.08;63.51
70434;BME280;57876;47.792;12.960;2023-08-12T05:53:08;97131.47;;;18.09;63.62
70434;BME280;57876;47.792;12.960;2023-08-12T05:55:33;97131.47;;;18.09;63.67
70434;BME280;57876;47.792;12.960;2023-08-12T05:57:59;97136.94;;;18.09;63.58
70434;BME280;57876;47.792;12.960;2023-08-12T06:00:23;97134.22;;;18.09;63.51
70434;BME280;57876;47.792;12.960;2023-08-12T06:02:47;97134.22;;;18.09;63.55
70434;BME280;57876;47.792;12.960;2023-08-12T06:05:12;97137.75;;;18.10;63.53
70434;BME280;57876;47.792;12.960;2023-08-12T06:07:36;97136.94;;;18.09;63.63
70434;BME280;57876;47.792;12.960;2023-08-12T06:10:01;97136.94;;;18.09;63.42
70434;BME280;57876;47.792;12.960;2023-08-12T06:12:25;97135.31;;;18.08;63.62
70434;BME280;57876;47.792;12.960;2023-08-12T06:14:50;97133.06;;;18.10;63.45
70434;BME280;57876;47.792;12.960;2023-08-12T06:17:14;97131.47;;;18.09;63.46
70434;BME280;57876;47.792;12.960;2023-08-12T06:19:38;97144.81;;;18.11;63.36
70434;BME280;57876;47.792;12.960;2023-08-12T06:22:03;97135.81;;;18.10;63.45
70434;BME280;57876;47.792;12.960;2023-08-12T06:24:27;97145.66;;;18.11;63.48
70434;BME280;57876;47.792;12.960;2023-08-12T06:26:52;97144.81;;;18.11;63.36
70434;BME280;57876;47.792;12.960;2023-08-12T06:29:16;97133.88;;;18.11;63.52
70434;BME280;57876;47.792;12.960;2023-08-12T06:31:40;97129.22;;;18.11;63.54
70434;BME280;57876;47.792;12.960;2023-08-12T06:34:05;97130.34;;;18.10;63.40
70434;BME280;57876;47.792;12.960;2023-08-12T06:36:29;97138.53;;;18.10;63.52
70434;BME280;57876;47.792;12.960;2023-08-12T06:38:54;97129.22;;;18.11;63.56
70434;BME280;57876;47.792;12.960;2023-08-12T06:41:18;97122.13;;;18.10;63.52
70434;BME280;57876;47.792;12.960;2023-08-12T06:43:42;97116.34;;;18.12;63.51
70434;BME280;57876;47.792;12.960;2023-08-12T06:46:07;97118.28;;;18.11;63.40
70434;BME280;57876;47.792;12.960;2023-08-12T06:48:31;97109.25;;;18.11;63.50
70434;BME280;57876;47.792;12.960;2023-08-12T06:50:56;97113.91;;;18.10;63.51
70434;BME280;57876;47.792;12.960;2023-08-12T06:53:21;97107.31;;;18.11;63.64
70434;BME280;57876;47.792;12.960;2023-08-12T06:55:45;97109.25;;;18.11;63.51
70434;BME280;57876;47.792;12.960;2023-08-12T06:58:10;97113.59;;;18.12;63.44
70434;BME280;57876;47.792;12.960;2023-08-12T07:00:34;97116.34;;;18.12;63.55
70434;BME280;57876;47.792;12.960;2023-08-12T07:02:59;97121.81;;;18.12;63.50
70434;BME280;57876;47.792;12.960;2023-08-12T07:05:23;97115.53;;;18.11;63.52
70434;BME280;57876;47.792;12.960;2023-08-12T07:07:47;97114.72;;;18.11;63.45
70434;BME280;57876;47.792;12.960;2023-08-12T07:10:12;97121.81;;;18.12;63.61
70434;BME280;57876;47.792;12.960;2023-08-12T07:12:36;97120.66;;;18.13;63.55
70434;BME280;57876;47.792;12.960;2023-08-12T07:15:00;97111.97;;;18.11;63.40
70434;BME280;57876;47.792;12.960;2023-08-12T07:17:25;97108.13;;;18.12;63.53
70434;BME280;57876;47.792;12.960;2023-08-12T07:19:49;97112.81;;;18.11;63.43
70434;BME280;57876;47.792;12.960;2023-08-12T07:22:14;97108.13;;;18.12;63.68
70434;BME280;57876;47.792;12.960;2023-08-12T07:24:40;97108.91;;;18.12;63.44
70434;BME280;57876;47.792;12.960;2023-08-12T07:27:04;97107.31;;;18.11;63.56
70434;BME280;57876;47.792;12.960;2023-08-12T07:29:29;97100.72;;;18.12;63.32
70434;BME280;57876;47.792;12.960;2023-08-12T07:31:53;97106.19;;;18.12;63.41
70434;BME280;57876;47.792;12.960;2023-08-12T07:34:17;97108.91;;;18.12;63.32
70434;BME280;57876;47.792;12.960;2023-08-12T07:36:42;97106.50;;;18.11;63.52
70434;BME280;57876;47.792;12.960;2023-08-12T07:39:07;97105.38;;;18.12;63.33
70434;BME280;57876;47.792;12.960;2023-08-12T07:41:31;97108.91;;;18.12;63.19
70434;BME280;57876;47.792;12.960;2023-08-12T07:43:56;97107.78;;;18.13;63.44
70434;BME280;57876;47.792;12.960;2023-08-12T07:46:20;97106.97;;;18.13;63.46
70434;BME280;57876;47.792;12.960;2023-08-12T07:48:45;97104.25;;;18.13;63.43
70434;BME280;57876;47.792;12.960;2023-08-12T07:51:09;97100.38;;;18.14;63.42
70434;BME280;57876;47.792;12.960;2023-08-12T07:53:33;97087.03;;;18.12;63.57
70434;BME280;57876;47.792;12.960;2023-08-12T07:55:58;97096.84;;;18.13;63.45
70434;BME280;57876;47.792;12.960;2023-08-12T07:58:23;97087.81;;;18.13;63.36
70434;BME280;57876;47.792;12.960;2023-08-12T08:00:47;97090.25;;;18.14;63.49
70434;BME280;57876;47.792;12.960;2023-08-12T08:03:11;97090.56;;;18.13;63.53
70434;BME280;57876;47.792;12.960;2023-08-12T08:05:40;97100.06;;;18.15;63.46
70434;BME280;57876;47.792;12.960;2023-08-12T08:08:04;97100.38;;;18.14;63.35
70434;BME280;57876;47.792;12.960;2023-08-12T08:10:28;97096.53;;;18.15;63.43
70434;BME280;57876;47.792;12.960;2023-08-12T08:12:53;97090.25;;;18.14;63.48
70434;BME280;57876;47.792;12.960;2023-08-12T08:15:17;97092.63;;;18.16;63.43
70434;BME280;57876;47.792;12.960;2023-08-12T08:17:41;97091.03;;;18.15;63.40
70434;BME280;57876;47.792;12.960;2023-08-12T08:20:06;97085.22;;;18.16;63.36
70434;BME280;57876;47.792;12.960;2023-08-12T08:22:31;97088.78;;;18.17;63.49
70434;BME280;57876;47.792;12.960;2023-08-12T08:24:56;97080.88;;;18.15;63.32
70434;BME280;57876;47.792;12.960;2023-08-12T08:27:20;97080.56;;;18.17;63.35
70434;BME280;57876;47.792;12.960;2023-08-12T08:29:44;97084.13;;;18.17;63.41
70434;BME280;57876;47.792;12.960;2023-08-12T08:32:09;97087.97;;;18.16;63.43
70434;BME280;57876;47.792;12.960;2023-08-12T08:34:33;97084.44;;;18.16;63.39
70434;BME280;57876;47.792;12.960;2023-08-12T08:36:57;97077.00;;;18.16;63.27
70434;BME280;57876;47.792;12.960;2023-08-12T08:39:22;97071.53;;;18.16;63.36
70434;BME280;57876;47.792;12.960;2023-08-12T08:41:47;97077.84;;;18.17;63.49
70434;BME280;57876;47.792;12.960;2023-08-12T08:44:13;97077.84;;;18.17;63.53
70434;BME280;57876;47.792;12.960;2023-08-12T08:46:39;97080.56;;;18.17;63.47
70434;BME280;57876;47.792;12.960;2023-08-12T08:49:04;97077.84;;;18.17;63.37
70434;BME280;57876;47.792;12.960;2023-08-12T08:51:30;97076.69;;;18.18;63.38
70434;BME280;57876;47.792;12.960;2023-08-12T08:53:55;97081.03;;;18.19;63.61
70434;BME280;57876;47.792;12.960;2023-08-12T08:56:20;97075.91;;;18.17;63.27
70434;BME280;57876;47.792;12.960;2023-08-12T08:58:46;97073.97;;;18.18;63.40
70434;BME280;57876;47.792;12.960;2023-08-12T09:01:11;97080.56;;;18.17;63.37
70434;BME280;57876;47.792;12.960;2023-08-12T09:03:38;97085.72;;;18.18;63.42
70434;BME280;57876;47.792;12.960;2023-08-12T09:06:02;97082.50;;;18.16;63.72
70434;BME280;57876;47.792;12.960;2023-08-12T09:08:28;97080.88;;;18.15;63.56
70434;BME280;57876;47.792;12.960;2023-08-12T09:10:57;97081.69;;;18.16;63.39
70434;BME280;57876;47.792;12.960;2023-08-12T09:13:23;97089.59;;;18.17;63.59
70434;BME280;57876;47.792;12.960;2023-08-12T09:15:47;97081.38;;;18.17;63.64
70434;BME280;57876;47.792;12.960;2023-08-12T09:18:12;97084.13;;;18.17;63.63
70434;BME280;57876;47.792;12.960;2023-08-12T09:20:36;97084.13;;;18.17;63.68
70434;BME280;57876;47.792;12.960;2023-08-12T09:23:01;97087.97;;;18.16;63.58
70434;BME280;57876;47.792;12.960;2023-08-12T09:25:27;97086.84;;;18.17;63.57
70434;BME280;57876;47.792;12.960;2023-08-12T09:27:58;97088.78;;;18.17;63.51
70434;BME280;57876;47.792;12.960;2023-08-12T09:30:23;97083.31;;;18.17;63.68
70434;BME280;57876;47.792;12.960;2023-08-12T09:32:58;97077.84;;;18.17;63.72
70434;BME280;57876;47.792;12.960;2023-08-12T09:35:32;97078.63;;;18.17;63.64
70434;BME280;57876;47.792;12.960;2023-08-12T09:37:56;97082.50;;;18.16;63.80
70434;BME280;57876;47.792;12.960;2023-08-12T09:40:22;97077.84;;;18.17;63.76
70434;BME280;57876;47.792;12.960;2023-08-12T09:42:47;97073.16;;;18.17;63.77
70434;BME280;57876;47.792;12.960;2023-08-12T09:45:11;97067.69;;;18.17;63.70
70434;BME280;57876;47.792;12.960;2023-08-12T09:47:36;97067.69;;;18.17;63.65
70434;BME280;57876;47.792;12.960;2023-08-12T09:50:01;97070.75;;;18.16;63.64
70434;BME280;57876;47.792;12.960;2023-08-12T09:52:26;97067.69;;;18.17;63.76
70434;BME280;57876;47.792;12.960;2023-08-12T09:54:53;97065.75;;;18.18;63.82
70434;BME280;57876;47.792;12.960;2023-08-12T09:57:19;97075.91;;;18.17;63.68
70434;BME280;57876;47.792;12.960;2023-08-12T09:59:46;97066.06;;;18.16;63.77
70434;BME280;57876;47.792;12.960;2023-08-12T10:02:14;97065.75;;;18.18;63.93
70434;BME280;57876;47.792;12.960;2023-08-12T10:04:44;97060.59;;;18.16;63.90
70434;BME280;57876;47.792;12.960;2023-08-12T10:07:09;97052.84;;;18.18;63.52
70434;BME280;57876;47.792;12.960;2023-08-12T10:09:34;97063.81;;;18.18;63.78
70434;BME280;57876;47.792;12.960;2023-08-12T10:12:01;97058.19;;;18.15;63.78
70434;BME280;57876;47.792;12.960;2023-08-12T10:14:25;97059.97;;;18.19;63.99
70434;BME280;57876;47.792;12.960;2023-08-12T10:16:50;97059.47;;;18.17;63.80
70434;BME280;57876;47.792;12.960;2023-08-12T10:19:16;97060.59;;;18.16;63.69
70434;BME280;57876;47.792;12.960;2023-08-12T10:21:43;97056.75;;;18.17;63.96
70434;BME280;57876;47.792;12.960;2023-08-12T10:24:08;97054.78;;;18.18;63.89
70434;BME280;57876;47.792;12.960;2023-08-12T10:26:32;97054.78;;;18.18;63.95
70434;BME280;57876;47.792;12.960;2023-08-12T10:28:57;97054.78;;;18.18;64.04
70434;BME280;57876;47.792;12.960;2023-08-12T10:31:21;97054.78;;;18.18;63.78
70434;BME280;57876;47.792;12.960;2023-08-12T10:33:46;97051.25;;;18.17;63.97
70434;BME280;57876;47.792;12.960;2023-08-12T10:36:14;97058.34;;;18.18;63.88
70434;BME280;57876;47.792;12.960;2023-08-12T10:38:39;97052.06;;;18.18;64.06
70434;BME280;57876;47.792;12.960;2023-08-12T10:41:22;97052.84;;;18.18;63.97
70434;BME280;57876;47.792;12.960;2023-08-12T10:49:05;97045.78;;;18.17;63.71
70434;BME280;57876;47.792;12.960;2023-08-12T10:52:02;97040.31;;;18.17;64.17
70434;BME280;57876;47.792;12.960;2023-08-12T10:54:27;97041.91;;;18.18;64.04
70434;BME280;57876;47.792;12.960;2023-08-12T11:02:36;97040.31;;;18.17;64.02
70434;BME280;57876;47.792;12.960;2023-08-12T11:05:09;97041.91;;;18.18;64.01
70434;BME280;57876;47.792;12.960;2023-08-12T11:07:38;97035.63;;;18.18;63.98
70434;BME280;57876;47.792;12.960;2023-08-12T11:10:05;97035.63;;;18.18;64.17
70434;BME280;57876;47.792;12.960;2023-08-12T11:12:31;97033.69;;;18.18;64.13
70434;BME280;57876;47.792;12.960;2023-08-12T11:15:00;97037.22;;;18.19;63.96
70434;BME280;57876;47.792;12.960;2023-08-12T11:17:41;97028.56;;;18.17;63.99
70434;BME280;57876;47.792;12.960;2023-08-12T11:20:10;97030.97;;;18.18;64.13
70434;BME280;57876;47.792;12.960;2023-08-12T11:22:37;97022.75;;;18.18;64.04
70434;BME280;57876;47.792;12.960;2023-08-12T11:25:03;97029.84;;;18.19;63.86
70434;BME280;57876;47.792;12.960;2023-08-12T11:27:28;97023.53;;;18.19;64.14
70434;BME280;57876;47.792;12.960;2023-08-12T11:29:52;97030.63;;;18.20;64.33
70434;BME280;57876;47.792;12.960;2023-08-12T11:32:18;97028.22;;;18.18;64.15
70434;BME280;57876;47.792;12.960;2023-08-12T11:34:43;97027.09;;;18.19;64.18
70434;BME280;57876;47.792;12.960;2023-08-12T11:37:07;97032.59;;;18.19;64.08
70434;BME280;57876;47.792;12.960;2023-08-12T11:39:32;97026.28;;;18.19;64.29
70434;BME280;57876;47.792;12.960;2023-08-12T11:41:56;97012.59;;;18.19;64.30
70434;BME280;57876;47.792;12.960;2023-08-12T11:44:22;97016.16;;;18.19;64.07
70434;BME280;57876;47.792;12.960;2023-08-12T11:46:47;97013.06;;;18.21;64.25
70434;BME280;57876;47.792;12.960;2023-08-12T11:49:11;97002.13;;;18.21;64.24
70434;BME280;57876;47.792;12.960;2023-08-12T11:51:35;97008.41;;;18.21;64.07
70434;BME280;57876;47.792;12.960;2023-08-12T11:54:00;97005.22;;;18.19;64.31
70434;BME280;57876;47.792;12.960;2023-08-12T11:56:25;97012.28;;;18.20;64.26
70434;BME280;57876;47.792;12.960;2023-08-12T11:58:50;97008.75;;;18.20;64.26
70434;BME280;57876;47.792;12.960;2023-08-12T12:01:15;96997.78;;;18.20;64.08
70434;BME280;57876;47.792;12.960;2023-08-12T12:03:39;97002.47;;;18.19;64.22
70434;BME280;57876;47.792;12.960;2023-08-12T12:06:04;97001.63;;;18.19;64.27
70434;BME280;57876;47.792;12.960;2023-08-12T12:08:31;97002.91;;;18.21;64.07
70434;BME280;57876;47.792;12.960;2023-08-12T12:10:55;96996.66;;;18.21;64.21
70434;BME280;57876;47.792;12.960;2023-08-12T12:13:19;96995.84;;;18.20;64.19
70434;BME280;57876;47.792;12.960;2023-08-12T12:15:44;97006.78;;;18.20;64.36
70434;BME280;57876;47.792;12.960;2023-08-12T12:18:10;97003.75;;;18.22;64.24
70434;BME280;57876;47.792;12.960;2023-08-12T12:20:35;97004.53;;;18.22;64.31
70434;BME280;57876;47.792;12.960;2023-08-12T12:23:05;96998.28;;;18.22;64.23
70434;BME280;57876;47.792;12.960;2023-08-12T12:25:30;96998.28;;;18.22;64.41
70434;BME280;57876;47.792;12.960;2023-08-12T12:27:54;96991.97;;;18.21;64.44
70434;BME280;57876;47.792;12.960;2023-08-12T12:30:19;96993.59;;;18.22;64.37
70434;BME280;57876;47.792;12.960;2023-08-12T12:32:44;96999.06;;;18.22;64.35
70434;BME280;57876;47.792;12.960;2023-08-12T12:35:09;96993.59;;;18.22;64.40
70434;BME280;57876;47.792;12.960;2023-08-12T12:37:34;96986.97;;;18.23;64.42
70434;BME280;57876;47.792;12.960;2023-08-12T12:39:58;96986.97;;;18.23;64.30
70434;BME280;57876;47.792;12.960;2023-08-12T12:42:22;96985.38;;;18.22;64.37
70434;BME280;57876;47.792;12.960;2023-08-12T12:44:47;96995.19;;;18.23;64.38
70434;BME280;57876;47.792;12.960;2023-08-12T12:47:11;96992.44;;;18.23;64.40
70434;BME280;57876;47.792;12.960;2023-08-12T12:49:39;96983.44;;;18.23;64.40
70434;BME280;57876;47.792;12.960;2023-08-12T12:52:03;96988.13;;;18.22;64.41
70434;BME280;57876;47.792;12.960;2023-08-12T12:54:28;96985.38;;;18.22;64.27
70434;BME280;57876;47.792;12.960;2023-08-12T12:56:54;96979.56;;;18.24;64.42